Time;durP1;ratioP1;P1;durP2;ratioP2;P2;SDS_P1;SDS_P2;PMS_P1;PMS_P2;Temp;Humidity;BMP_temperature;BMP_pressure;BME280_temperature;BME280_humidity;BME280_pressure;Samples;Min_cycle;Max_cycle;Signal;HPM_P1;HPM_P2
2022/02/20 00:01:22;;;;;;;4.07;0.80;;;;;;;5.34;75.38;98583.56;5131470;27;42486;-77
2022/02/20 00:03:51;;;;;;;0.87;0.80;;;;;;;5.40;75.13;98587.69;5114920;27;42339;-76
2022/02/20 00:06:18;;;;;;;1.53;0.70;;;;;;;5.44;74.66;98585.78;5132283;27;42180;-78
2022/02/20 00:08:47;;;;;;;1.83;0.80;;;;;;;5.36;74.42;98562.47;5101919;28;40274;-77
2022/02/20 00:11:15;;;;;;;0.97;0.40;;;;;;;5.45;75.31;98576.94;5111462;27;40846;-77
2022/02/20 00:13:42;;;;;;;1.80;0.60;;;;;;;5.40;74.45;98559.66;5126066;27;43012;-77
2022/02/20 00:16:10;;;;;;;2.10;0.70;;;;;;;5.53;74.53;98572.22;5111289;28;42313;-77
2022/02/20 00:18:38;;;;;;;3.27;1.17;;;;;;;5.59;74.23;98577.16;5094430;28;40010;-77
2022/02/20 00:21:07;;;;;;;1.33;1.23;;;;;;;5.54;74.30;98566.91;5094477;28;42022;-78
2022/02/20 00:23:35;;;;;;;1.43;0.60;;;;;;;5.63;73.81;98565.59;5113323;27;43053;-77
2022/02/20 00:26:02;;;;;;;1.53;0.60;;;;;;;5.58;74.22;98575.47;5132729;27;42438;-78
2022/02/20 00:28:30;;;;;;;1.67;0.77;;;;;;;5.64;73.92;98562.06;5130814;27;38741;-78
2022/02/20 00:30:58;;;;;;;1.37;0.70;;;;;;;5.64;73.96;98548.91;5131839;27;42581;-78
2022/02/20 00:33:25;;;;;;;1.93;0.73;;;;;;;5.65;74.04;98548.00;5112690;27;41726;-77
2022/02/20 00:35:54;;;;;;;2.30;0.90;;;;;;;5.75;73.58;98565.88;5116740;27;42950;-77
2022/02/20 00:38:23;;;;;;;4.87;1.27;;;;;;;5.71;73.57;98560.81;5122196;27;40170;-79
2022/02/20 00:40:51;;;;;;;1.23;0.50;;;;;;;5.73;73.36;98565.09;5107648;27;40496;-77
2022/02/20 00:43:19;;;;;;;1.33;0.63;;;;;;;5.78;73.28;98570.13;5114068;27;42970;-78
2022/02/20 00:45:50;;;;;;;0.73;0.73;;;;;;;5.80;73.62;98567.44;5109579;28;42811;-78
2022/02/20 00:48:20;;;;;;;4.77;1.03;;;;;;;5.81;73.16;98564.72;5102487;27;40229;-78
2022/02/20 00:50:49;;;;;;;2.23;0.80;;;;;;;5.77;73.08;98532.50;5120951;27;41717;-78
2022/02/20 00:53:16;;;;;;;1.50;0.60;;;;;;;5.91;72.95;98559.94;5113350;27;41740;-79
2022/02/20 00:55:45;;;;;;;3.17;0.97;;;;;;;5.76;73.06;98551.81;5097785;27;42439;-77
2022/02/20 00:58:13;;;;;;;1.00;0.90;;;;;;;6.00;72.47;98548.97;5130725;27;39987;-78
2022/02/20 01:00:40;;;;;;;1.40;0.50;;;;;;;6.01;72.54;98556.78;5131425;27;41690;-79
2022/02/20 01:03:08;;;;;;;2.33;0.57;;;;;;;5.91;72.49;98521.34;5131091;27;43097;-78
2022/02/20 01:05:36;;;;;;;3.23;0.70;;;;;;;6.08;72.14;98536.28;5131252;27;42896;-78
2022/02/20 01:08:05;;;;;;;1.03;0.63;;;;;;;6.11;71.86;98515.94;5113459;27;39674;-78
2022/02/20 01:10:33;;;;;;;1.30;0.70;;;;;;;6.10;72.02;98535.28;5113655;27;42583;-78
2022/02/20 01:13:02;;;;;;;0.60;0.60;;;;;;;6.01;72.07;98508.59;5129915;27;43671;-79
2022/02/20 01:15:30;;;;;;;0.50;0.50;;;;;;;6.01;71.67;98508.59;5113605;27;40822;-79
2022/02/20 01:17:58;;;;;;;0.70;0.70;;;;;;;6.19;71.42;98527.84;5113867;27;38952;-78
2022/02/20 01:20:27;;;;;;;0.83;0.63;;;;;;;6.15;71.55;98542.94;5110045;28;40632;-78
2022/02/20 01:22:54;;;;;;;1.67;0.90;;;;;;;6.15;71.73;98547.34;5123745;27;42532;-77
2022/02/20 01:25:22;;;;;;;1.83;0.80;;;;;;;6.16;71.51;98549.06;5129885;27;42306;-79
2022/02/20 01:27:50;;;;;;;2.00;0.40;;;;;;;6.05;71.61;98536.44;5098306;27;39928;-79
2022/02/20 01:30:19;;;;;;;1.17;0.70;;;;;;;6.14;71.46;98541.25;5104687;28;42406;-77
2022/02/20 01:32:46;;;;;;;0.60;0.60;;;;;;;6.12;71.53;98538.69;5106102;27;44450;-78
2022/02/20 01:35:15;;;;;;;0.77;0.77;;;;;;;6.04;71.67;98534.75;5096975;27;41382;-79
2022/02/20 01:37:43;;;;;;;0.90;0.40;;;;;;;6.02;71.78;98541.84;5112064;27;39368;-78
2022/02/20 01:40:13;;;;;;;2.40;0.87;;;;;;;6.08;71.87;98545.00;5105887;27;41902;-78
2022/02/20 01:42:42;;;;;;;1.00;0.90;;;;;;;6.18;71.32;98552.47;5108536;27;41589;-78
2022/02/20 01:45:13;;;;;;;3.93;0.67;;;;;;;6.18;71.15;98550.69;5118417;27;42821;-78
2022/02/20 01:47:42;;;;;;;0.60;0.60;;;;;;;6.30;70.95;98536.94;5116879;27;38318;-78
2022/02/20 01:50:11;;;;;;;1.60;0.43;;;;;;;6.32;70.82;98555.25;5126578;27;41837;-78
2022/02/20 01:52:42;;;;;;;0.57;0.53;;;;;;;6.25;70.87;98538.06;5108767;27;41950;-78
2022/02/20 01:55:10;;;;;;;1.33;0.93;;;;;;;6.25;70.62;98538.06;5134075;27;43162;-78
2022/02/20 01:58:10;;;;;;;2.80;1.00;;;;;;;6.30;70.50;98546.59;5114721;27;39907;-77
2022/02/20 02:00:46;;;;;;;1.43;0.53;;;;;;;6.28;70.74;98537.94;5123065;27;42633;-79
2022/02/20 02:03:36;;;;;;;2.20;0.70;;;;;;;6.34;70.67;98574.44;5115815;27;43743;-78
2022/02/20 02:06:09;;;;;;;2.60;0.93;;;;;;;6.31;70.69;98537.75;5116994;27;41216;-78
2022/02/20 02:08:37;;;;;;;0.57;0.57;;;;;;;6.36;70.61;98546.28;5105165;28;39378;-79
2022/02/20 02:11:25;;;;;;;0.80;0.80;;;;;;;6.35;70.28;98544.56;5130202;27;40696;-78
2022/02/20 02:14:11;;;;;;;1.43;0.80;;;;;;;6.39;70.33;98540.88;5122143;27;43774;-78
2022/02/20 02:16:58;;;;;;;1.40;0.80;;;;;;;6.41;70.21;98557.44;5131117;27;42111;-79
2022/02/20 02:19:45;;;;;;;3.20;0.90;;;;;;;6.42;70.56;98525.78;5117683;27;40075;-77
2022/02/20 02:22:35;;;;;;;0.73;0.60;;;;;;;6.36;71.83;98543.66;5131333;27;41758;-77
2022/02/20 02:25:27;;;;;;;3.23;0.90;;;;;;;6.37;71.52;98524.31;5113767;27;43132;-78
2022/02/20 02:28:06;;;;;;;0.80;0.63;;;;;;;6.33;71.02;98520.13;5124934;27;42148;-77
2022/02/20 02:30:38;;;;;;;4.33;0.70;;;;;;;6.22;71.86;98501.41;5124958;27;39364;-78
2022/02/20 02:33:09;;;;;;;1.10;0.87;;;;;;;6.24;71.86;98510.94;5100311;28;43364;-79
2022/02/20 02:35:38;;;;;;;1.00;0.70;;;;;;;6.22;71.46;98504.03;5116341;27;41265;-77
2022/02/20 02:38:07;;;;;;;0.60;0.53;;;;;;;6.32;71.30;98523.69;5109294;28;42590;-78
2022/02/20 02:40:34;;;;;;;0.60;0.60;;;;;;;6.38;71.13;98518.13;5106782;27;39041;-76
2022/02/20 02:43:02;;;;;;;1.07;0.60;;;;;;;6.37;71.12;98521.69;5116206;27;40717;-78
2022/02/20 02:45:29;;;;;;;2.73;1.13;;;;;;;6.34;70.96;98513.94;5116368;27;43366;-80
2022/02/20 02:47:58;;;;;;;2.63;1.10;;;;;;;6.38;70.55;98528.66;5110060;28;43462;-78
2022/02/20 02:50:25;;;;;;;0.97;0.70;;;;;;;6.22;70.56;98502.25;5122933;27;40158;-78
2022/02/20 02:52:56;;;;;;;1.90;0.40;;;;;;;6.46;70.57;98532.56;5101439;27;40588;-78
2022/02/20 02:55:27;;;;;;;0.93;0.70;;;;;;;6.56;70.21;98551.38;5111780;27;41348;-78
2022/02/20 02:57:55;;;;;;;1.80;1.07;;;;;;;6.59;70.28;98563.50;5111214;27;41156;-78
2022/02/20 03:00:22;;;;;;;2.30;1.10;;;;;;;6.61;70.04;98549.38;5106421;28;38726;-79
2022/02/20 03:02:50;;;;;;;2.77;0.80;;;;;;;6.68;69.89;98558.63;5125943;27;40554;-78
2022/02/20 03:05:18;;;;;;;1.30;0.50;;;;;;;6.54;69.89;98526.09;5103004;27;44593;-79
2022/02/20 03:07:46;;;;;;;2.47;0.90;;;;;;;6.72;69.81;98564.59;5115800;27;41228;-77
2022/02/20 03:10:14;;;;;;;1.27;0.60;;;;;;;6.36;69.89;98515.56;5107792;28;39243;-78
2022/02/20 03:12:43;;;;;;;1.63;0.80;;;;;;;6.70;69.74;98562.03;5107365;27;42263;-78
2022/02/20 03:15:11;;;;;;;1.27;0.53;;;;;;;6.82;70.09;98586.88;5116687;27;43751;-78
2022/02/20 03:17:41;;;;;;;2.67;0.87;;;;;;;6.84;69.79;98583.22;5112290;27;41031;-78
2022/02/20 03:20:10;;;;;;;1.57;0.43;;;;;;;6.85;69.43;98582.31;5103098;27;39057;-78
2022/02/20 03:22:41;;;;;;;1.97;0.60;;;;;;;6.90;69.65;98583.84;5103607;28;42223;-77
2022/02/20 03:25:09;;;;;;;0.80;0.40;;;;;;;6.94;69.63;98593.28;5128658;27;41808;-78
2022/02/20 03:27:40;;;;;;;1.37;0.67;;;;;;;6.96;69.81;98600.16;5098544;27;42064;-78
2022/02/20 03:30:14;;;;;;;2.30;0.97;;;;;;;6.97;69.60;98599.25;5107953;28;38721;-77
2022/02/20 03:32:47;;;;;;;1.90;0.60;;;;;;;7.03;69.52;98600.72;5123749;27;42608;-79
2022/02/20 03:35:18;;;;;;;0.73;0.50;;;;;;;7.04;69.37;98607.69;5112846;27;43029;-78
2022/02/20 03:37:46;;;;;;;1.53;1.00;;;;;;;7.10;69.45;98612.63;5110768;28;43834;-78
2022/02/20 03:40:14;;;;;;;3.83;1.73;;;;;;;7.09;69.40;98605.66;5120766;27;40955;-78
2022/02/20 03:42:42;;;;;;;2.70;0.73;;;;;;;7.13;69.05;98617.72;5120481;27;41282;-78
2022/02/20 03:45:32;;;;;;;0.53;0.50;;;;;;;7.12;68.98;98605.50;5125940;27;42695;-78
2022/02/20 03:48:00;;;;;;;1.10;0.50;;;;;;;7.03;69.21;98592.81;5108756;27;42226;-78
2022/02/20 03:50:27;;;;;;;1.53;0.87;;;;;;;7.13;69.11;98617.72;5115352;27;40195;-78
2022/02/20 03:52:58;;;;;;;1.30;0.63;;;;;;;7.15;69.07;98618.50;5100140;28;40465;-78
2022/02/20 03:55:29;;;;;;;1.27;0.57;;;;;;;7.22;68.70;98620.72;5128439;27;42122;-79
2022/02/20 03:57:58;;;;;;;2.67;0.50;;;;;;;7.27;68.54;98628.41;5110490;27;41531;-77
2022/02/20 04:00:34;;;;;;;0.40;0.40;;;;;;;7.29;68.60;98629.19;5118225;27;39932;-78
2022/02/20 04:03:13;;;;;;;1.80;0.50;;;;;;;7.31;68.59;98626.44;5110321;27;43080;-78
2022/02/20 04:05:46;;;;;;;0.80;0.60;;;;;;;7.29;68.27;98629.19;5098947;27;43264;-78
2022/02/20 04:08:15;;;;;;;3.27;0.73;;;;;;;7.27;68.19;98641.56;5131786;27;42882;-78
2022/02/20 04:10:42;;;;;;;0.67;0.50;;;;;;;7.29;68.35;98641.50;5103008;28;38586;-78
2022/02/20 04:13:16;;;;;;;2.57;0.63;;;;;;;7.34;68.35;98650.84;5111278;27;41707;-79
2022/02/20 04:15:52;;;;;;;1.17;0.60;;;;;;;7.37;68.56;98637.50;5108837;28;43779;-78
2022/02/20 04:18:27;;;;;;;2.53;0.60;;;;;;;7.31;68.32;98622.00;5096276;28;42546;-78
2022/02/20 04:21:17;;;;;;;3.90;1.67;;;;;;;7.42;68.25;98640.72;5125730;27;39951;-79
2022/02/20 04:23:45;;;;;;;0.73;0.60;;;;;;;7.49;68.09;98646.53;5110285;28;40753;-77
2022/02/20 04:26:16;;;;;;;0.40;0.40;;;;;;;7.51;68.48;98653.44;5117148;27;42647;-77
2022/02/20 04:28:44;;;;;;;0.90;0.60;;;;;;;7.53;68.16;98646.31;5114572;27;41299;-78
2022/02/20 04:31:13;;;;;;;1.10;0.50;;;;;;;7.55;68.20;98641.78;5114834;27;41448;-79
2022/02/20 04:33:40;;;;;;;0.90;0.40;;;;;;;7.62;68.07;98657.28;5114413;27;41058;-78
2022/02/20 04:36:10;;;;;;;1.70;0.77;;;;;;;7.62;67.85;98650.22;5107061;28;42058;-77
2022/02/20 04:38:38;;;;;;;1.50;0.90;;;;;;;7.57;67.80;98645.19;5105292;27;42909;-78
2022/02/20 04:41:09;;;;;;;2.77;0.80;;;;;;;7.64;67.47;98661.53;5112999;27;40042;-78
2022/02/20 04:43:38;;;;;;;1.83;0.90;;;;;;;7.62;67.73;98662.56;5114439;27;41712;-78
2022/02/20 04:46:10;;;;;;;0.87;0.30;;;;;;;7.66;67.38;98669.38;5106497;28;41626;-78
2022/02/20 04:48:39;;;;;;;2.70;0.53;;;;;;;7.65;67.68;98657.13;5122575;27;42233;-78
2022/02/20 04:51:14;;;;;;;1.63;0.40;;;;;;;7.74;67.34;98661.88;5118296;27;39625;-78
2022/02/20 04:53:42;;;;;;;1.37;0.60;;;;;;;7.78;67.23;98671.34;5125362;27;42395;-78
2022/02/20 04:56:10;;;;;;;2.20;0.40;;;;;;;7.81;67.10;98676.44;5131068;27;43709;-77
2022/02/20 04:58:39;;;;;;;2.10;0.70;;;;;;;7.84;66.93;98678.91;5113729;27;41103;-77
2022/02/20 05:01:17;;;;;;;0.80;0.40;;;;;;;7.89;66.56;98677.72;5131206;27;40326;-79
2022/02/20 05:04:05;;;;;;;3.20;0.57;;;;;;;7.83;66.84;98672.78;5118657;27;41753;-77
2022/02/20 05:06:43;;;;;;;0.63;0.43;;;;;;;7.92;66.60;98676.69;5115582;27;43772;-78
2022/02/20 05:09:17;;;;;;;1.37;0.80;;;;;;;7.96;66.39;98693.19;5110398;27;42454;-79
2022/02/20 05:11:54;;;;;;;1.37;0.40;;;;;;;7.71;66.65;98664.69;5099557;27;39014;-78
2022/02/20 05:14:22;;;;;;;0.90;0.50;;;;;;;7.98;66.69;98691.34;5105053;28;42592;-78
2022/02/20 05:16:50;;;;;;;0.50;0.50;;;;;;;7.99;66.85;98693.91;5128279;27;42792;-78
2022/02/20 05:19:29;;;;;;;0.30;0.30;;;;;;;7.96;66.57;98699.34;5130026;27;42954;-77
2022/02/20 05:21:58;;;;;;;1.13;0.57;;;;;;;8.04;66.68;98691.84;5120588;27;40686;-79
2022/02/20 05:24:32;;;;;;;0.80;0.57;;;;;;;8.00;66.68;98690.31;5106464;28;41791;-78
2022/02/20 05:27:00;;;;;;;0.50;0.50;;;;;;;8.04;66.72;98691.84;5108090;28;44768;-77
2022/02/20 05:29:36;;;;;;;1.50;0.40;;;;;;;8.09;66.41;98703.00;5117081;27;42845;-78
2022/02/20 05:32:06;;;;;;;0.63;0.33;;;;;;;8.01;66.71;98689.41;5127343;27;40895;-78
2022/02/20 05:34:51;;;;;;;1.50;0.57;;;;;;;8.13;66.65;98709.81;5110659;27;41765;-78
2022/02/20 05:37:19;;;;;;;3.80;0.60;;;;;;;8.13;66.54;98701.91;5099961;27;43981;-78
2022/02/20 05:39:47;;;;;;;1.10;0.70;;;;;;;8.12;66.71;98709.91;5130060;27;42221;-77
2022/02/20 05:42:15;;;;;;;0.47;0.47;;;;;;;8.15;66.47;98713.22;5105031;27;39090;-78
2022/02/20 05:44:50;;;;;;;0.60;0.57;;;;;;;8.17;66.73;98719.25;5118125;27;41869;-78
2022/02/20 05:47:18;;;;;;;0.83;0.70;;;;;;;8.16;66.94;98720.19;5113359;27;42887;-79
2022/02/20 05:49:51;;;;;;;0.60;0.40;;;;;;;8.16;66.92;98722.81;5115672;27;42111;-78
2022/02/20 05:52:19;;;;;;;2.07;0.60;;;;;;;8.19;66.62;98722.66;5107879;28;40048;-78
2022/02/20 05:54:48;;;;;;;0.83;0.50;;;;;;;8.20;66.94;98728.78;5109565;27;42024;-77
2022/02/20 05:57:17;;;;;;;1.90;0.53;;;;;;;8.22;66.70;98730.41;5109891;27;43009;-79
2022/02/20 05:59:59;;;;;;;1.27;0.90;;;;;;;8.24;66.36;98732.97;5131249;27;43129;-78
2022/02/20 06:02:26;;;;;;;2.40;0.57;;;;;;;8.24;66.42;98731.19;5106607;28;38949;-78
2022/02/20 06:04:59;;;;;;;1.60;0.77;;;;;;;8.21;66.99;98720.78;5110889;27;41524;-78
2022/02/20 06:07:59;;;;;;;0.80;0.80;;;;;;;8.24;66.65;98725.91;5114995;27;43836;-78
2022/02/20 06:10:47;;;;;;;0.87;0.50;;;;;;;8.24;66.83;98725.91;5138886;27;41691;-78
2022/02/20 06:13:44;;;;;;;0.40;0.40;;;;;;;8.19;66.60;98732.34;5100770;27;40144;-78
2022/02/20 06:16:30;;;;;;;2.23;0.80;;;;;;;8.24;66.70;98740.88;5130401;27;40668;-78
2022/02/20 06:19:01;;;;;;;1.47;0.73;;;;;;;8.24;66.85;98744.38;5105906;28;41692;-78
2022/02/20 06:21:57;;;;;;;0.93;0.60;;;;;;;8.27;66.91;98754.75;5117862;27;42264;-78
2022/02/20 06:24:54;;;;;;;1.53;0.50;;;;;;;8.30;66.75;98753.72;5112478;27;40695;-79
2022/02/20 06:27:44;;;;;;;0.60;0.50;;;;;;;8.30;66.51;98757.22;5112843;27;42599;-78
2022/02/20 06:30:16;;;;;;;1.83;0.87;;;;;;;8.31;66.60;98758.06;5104958;27;43129;-78
2022/02/20 06:32:44;;;;;;;1.33;0.47;;;;;;;8.35;66.64;98766.69;5116432;27;40949;-78
2022/02/20 06:35:11;;;;;;;0.67;0.50;;;;;;;8.37;66.40;98772.75;5100554;28;38995;-79
2022/02/20 06:37:42;;;;;;;0.57;0.50;;;;;;;8.37;66.64;98775.41;5116284;27;41709;-79
2022/02/20 06:40:11;;;;;;;3.37;0.80;;;;;;;8.38;66.80;98779.75;5116426;27;43299;-78
2022/02/20 06:42:39;;;;;;;0.60;0.60;;;;;;;8.38;66.53;98779.75;5121172;27;42226;-78
2022/02/20 06:45:14;;;;;;;2.10;0.63;;;;;;;8.36;66.69;98782.47;5127137;27;39701;-78
2022/02/20 06:48:02;;;;;;;2.47;0.50;;;;;;;8.40;66.95;98799.84;5118656;27;41827;-78
2022/02/20 06:50:51;;;;;;;0.60;0.50;;;;;;;8.35;66.89;98786.03;5116233;27;45043;-78
2022/02/20 06:53:37;;;;;;;0.87;0.50;;;;;;;8.43;67.25;98793.50;5098932;27;41335;-79
2022/02/20 06:56:17;;;;;;;1.17;0.57;;;;;;;8.47;67.00;98800.34;5109519;27;38867;-78
2022/02/20 06:58:44;;;;;;;2.60;0.50;;;;;;;8.51;66.86;98799.25;5132158;27;40629;-78
2022/02/20 07:01:12;;;;;;;3.80;0.70;;;;;;;8.53;66.57;98800.84;5133047;27;42715;-78
2022/02/20 07:03:39;;;;;;;0.57;0.57;;;;;;;8.56;66.81;98810.38;5095032;28;41196;-78
2022/02/20 07:06:08;;;;;;;2.67;0.80;;;;;;;8.61;66.58;98811.00;5112934;28;39904;-78
2022/02/20 07:08:37;;;;;;;1.00;0.70;;;;;;;8.65;66.52;98810.72;5124562;27;42161;-78
2022/02/20 07:11:04;;;;;;;0.93;0.67;;;;;;;8.66;66.47;98803.66;5133767;27;43810;-78
2022/02/20 07:13:32;;;;;;;3.30;0.53;;;;;;;8.68;66.67;98809.69;5132032;27;43174;-78
2022/02/20 07:15:59;;;;;;;2.70;0.83;;;;;;;8.71;66.62;98803.41;5132886;27;40049;-79
2022/02/20 07:18:27;;;;;;;3.30;0.80;;;;;;;8.73;66.50;98802.38;5132519;27;40954;-78
2022/02/20 07:20:55;;;;;;;0.90;0.73;;;;;;;8.76;66.49;98802.22;5134186;27;43853;-78
2022/02/20 07:23:23;;;;;;;0.53;0.50;;;;;;;8.74;66.76;98808.53;5116984;27;42298;-79
2022/02/20 07:25:52;;;;;;;0.67;0.50;;;;;;;8.71;67.08;98804.25;5127758;27;38940;-79
2022/02/20 07:28:20;;;;;;;2.00;0.50;;;;;;;8.69;68.17;98794.72;5103618;27;40747;-78
2022/02/20 07:30:47;;;;;;;2.50;0.60;;;;;;;8.58;69.37;98792.69;5102545;28;42132;-79
2022/02/20 07:33:16;;;;;;;1.03;1.03;;;;;;;8.51;70.00;98794.81;5129439;27;42328;-78
2022/02/20 07:35:44;;;;;;;3.10;0.80;;;;;;;8.44;70.67;98779.38;5115923;27;39682;-78
2022/02/20 07:38:12;;;;;;;0.63;0.63;;;;;;;8.35;71.48;98774.63;5132615;27;41658;-79
2022/02/20 07:40:39;;;;;;;0.83;0.60;;;;;;;8.16;72.04;98749.19;5103381;28;41813;-79
2022/02/20 07:43:08;;;;;;;1.33;0.70;;;;;;;8.21;72.44;98755.09;5127656;27;42323;-78
2022/02/20 07:45:36;;;;;;;0.83;0.50;;;;;;;8.16;72.82;98757.09;5114953;27;39909;-79
2022/02/20 07:48:04;;;;;;;1.67;0.67;;;;;;;8.08;72.88;98755.81;5132239;27;41744;-79
2022/02/20 07:50:34;;;;;;;1.33;0.60;;;;;;;8.10;73.43;98746.06;5132543;27;43465;-79
2022/02/20 07:53:04;;;;;;;0.50;0.50;;;;;;;8.13;73.20;98757.31;5131515;27;43235;-78
2022/02/20 07:55:32;;;;;;;0.93;0.50;;;;;;;8.18;73.05;98757.88;5132321;27;40171;-79
2022/02/20 07:58:01;;;;;;;1.27;0.73;;;;;;;8.24;73.31;98751.44;5108382;28;40787;-78
2022/02/20 08:00:31;;;;;;;2.03;0.80;;;;;;;8.34;72.27;98757.09;5111088;28;43710;-79
2022/02/20 08:02:59;;;;;;;0.93;0.60;;;;;;;8.32;72.27;98764.22;5110514;28;40973;-80
2022/02/20 08:05:27;;;;;;;2.20;0.70;;;;;;;8.42;71.79;98766.28;5128915;27;41192;-80
2022/02/20 08:07:55;;;;;;;2.70;0.93;;;;;;;8.50;71.43;98774.63;5097330;27;40657;-79
2022/02/20 08:10:22;;;;;;;1.13;0.87;;;;;;;8.59;71.19;98778.53;5116653;27;44446;-79
2022/02/20 08:12:50;;;;;;;1.00;0.80;;;;;;;8.57;70.74;98780.41;5113698;27;42137;-79
2022/02/20 08:15:17;;;;;;;1.00;0.70;;;;;;;8.57;70.78;98780.41;5111630;27;39010;-79
2022/02/20 08:17:48;;;;;;;0.77;0.70;;;;;;;8.47;70.98;98763.38;5098711;27;42426;-78
2022/02/20 08:20:17;;;;;;;1.17;0.73;;;;;;;8.45;71.31;98757.34;5106747;28;42081;-80
2022/02/20 08:22:45;;;;;;;1.27;1.03;;;;;;;8.37;71.99;98759.56;5106864;27;40862;-79
2022/02/20 08:25:14;;;;;;;0.90;0.90;;;;;;;8.10;72.62;98717.03;5115263;27;39949;-79
2022/02/20 08:27:43;;;;;;;1.00;0.90;;;;;;;8.41;72.60;98755.78;5115115;27;41742;-80
2022/02/20 08:30:13;;;;;;;2.70;0.90;;;;;;;8.48;71.87;98763.31;5114383;27;41655;-78
2022/02/20 08:32:41;;;;;;;0.70;0.60;;;;;;;8.55;71.76;98777.00;5131861;27;42261;-78
2022/02/20 08:35:11;;;;;;;0.80;0.80;;;;;;;8.61;71.39;98771.41;5115155;27;38906;-79
2022/02/20 08:37:43;;;;;;;0.70;0.70;;;;;;;8.54;71.16;98767.38;5129403;27;42353;-78
2022/02/20 08:40:12;;;;;;;0.73;0.70;;;;;;;8.61;70.88;98771.41;5125507;27;42792;-79
2022/02/20 08:42:39;;;;;;;2.87;1.00;;;;;;;8.64;70.50;98776.50;5105855;27;41145;-79
2022/02/20 08:45:09;;;;;;;2.10;0.77;;;;;;;8.59;70.53;98774.13;5116357;27;39896;-79
2022/02/20 08:47:36;;;;;;;0.90;0.90;;;;;;;8.71;70.28;98772.56;5110578;27;42489;-79
2022/02/20 08:50:08;;;;;;;2.27;1.03;;;;;;;8.69;70.73;98774.44;5110499;28;43724;-78
2022/02/20 08:52:40;;;;;;;0.70;0.70;;;;;;;8.73;70.33;98767.22;5110082;28;43609;-79
2022/02/20 09:46:29;;;;;;;0.50;0.50;;;;;;;7.86;79.96;98716.59;5170829;27;20551;-77
2022/02/20 09:48:59;;;;;;;0.80;0.67;;;;;;;8.31;78.78;98707.94;5137984;27;39574;-78
2022/02/20 09:51:28;;;;;;;1.23;0.50;;;;;;;8.80;76.19;98719.25;5166999;27;41685;-79
2022/02/20 09:53:57;;;;;;;0.50;0.30;;;;;;;9.13;74.23;98703.25;5148698;27;41983;-78
2022/02/20 09:56:25;;;;;;;0.80;0.60;;;;;;;9.34;72.83;98704.59;5148415;27;41115;-78
2022/02/20 09:58:53;;;;;;;0.50;0.50;;;;;;;9.48;72.19;98709.06;5148995;27;38933;-78
2022/02/20 10:01:21;;;;;;;0.40;0.40;;;;;;;9.66;71.12;98721.16;5149424;27;42060;-79
2022/02/20 10:03:50;;;;;;;1.03;0.40;;;;;;;9.90;70.15;98713.50;5158767;27;43807;-78
2022/02/20 10:06:20;;;;;;;0.40;0.40;;;;;;;10.06;69.38;98713.41;5160597;27;42332;-79
2022/02/20 10:08:50;;;;;;;0.50;0.40;;;;;;;10.15;68.88;98718.09;5163207;27;40221;-79
2022/02/20 10:11:20;;;;;;;0.60;0.40;;;;;;;10.36;68.18;98719.44;5152208;27;41844;-80
2022/02/20 10:13:49;;;;;;;0.30;0.30;;;;;;;10.66;66.90;98721.06;5164940;27;44171;-80
2022/02/20 10:16:23;;;;;;;0.60;0.30;;;;;;;10.90;65.95;98724.75;5161784;27;43308;-79
2022/02/20 10:19:05;;;;;;;0.30;0.30;;;;;;;11.20;64.76;98713.06;5146624;27;40656;-80
2022/02/20 10:21:54;;;;;;;0.80;0.37;;;;;;;11.44;63.85;98708.75;5150000;27;41583;-78
2022/02/20 10:25:00;;;;;;;0.50;0.40;;;;;;;11.55;63.59;98714.16;5161319;27;43809;-79
2022/02/20 10:27:51;;;;;;;1.53;0.60;;;;;;;11.63;62.96;98701.22;5153586;27;42914;-79
2022/02/20 10:30:27;;;;;;;0.40;0.40;;;;;;;11.68;63.21;98704.41;5157564;27;40248;-80
2022/02/20 10:33:10;;;;;;;0.70;0.47;;;;;;;11.74;63.61;98713.75;5162653;27;41736;-79
2022/02/20 10:35:46;;;;;;;0.40;0.40;;;;;;;11.65;62.71;98707.28;5138168;27;44504;-80
2022/02/20 10:38:17;;;;;;;0.40;0.40;;;;;;;11.40;63.00;98694.84;5167129;27;42801;-79
2022/02/20 10:40:47;;;;;;;0.63;0.40;;;;;;;11.27;63.51;98693.97;5138222;27;39143;-78
2022/02/20 10:43:34;;;;;;;0.40;0.30;;;;;;;11.35;64.45;98680.22;5148092;27;41358;-79
2022/02/20 10:46:07;;;;;;;0.40;0.40;;;;;;;11.22;65.08;98674.06;5136515;27;43808;-78
2022/02/20 10:48:39;;;;;;;1.70;0.40;;;;;;;11.23;65.17;98678.41;5165414;27;43100;-80
2022/02/20 10:51:22;;;;;;;1.73;0.40;;;;;;;11.26;65.02;98664.91;5139917;27;38743;-79
2022/02/20 10:53:51;;;;;;;0.73;0.43;;;;;;;11.45;65.63;98650.31;5146567;27;40823;-80
2022/02/20 10:56:19;;;;;;;1.40;0.50;;;;;;;11.70;63.67;98649.44;5153801;27;43868;-79
2022/02/20 10:58:55;;;;;;;0.73;0.40;;;;;;;12.13;63.09;98662.34;5130418;27;41028;-79
2022/02/20 11:01:24;;;;;;;0.40;0.40;;;;;;;12.30;61.31;98674.41;5137235;27;40962;-78
2022/02/20 11:04:01;;;;;;;0.40;0.40;;;;;;;12.32;61.53;98673.34;5149936;27;40825;-78
2022/02/20 11:06:35;;;;;;;1.23;0.33;;;;;;;12.29;60.19;98660.28;5141100;27;42901;-78
2022/02/20 11:09:03;;;;;;;0.33;0.33;;;;;;;12.33;60.11;98664.41;5148359;27;42880;-79
2022/02/20 11:11:37;;;;;;;0.60;0.60;;;;;;;12.38;60.34;98656.94;5137214;27;40787;-78
2022/02/20 11:14:06;;;;;;;0.40;0.40;;;;;;;12.58;58.91;98640.41;5131838;27;43028;-79
2022/02/20 11:16:34;;;;;;;0.87;0.40;;;;;;;12.69;58.38;98649.38;5142799;27;43046;-79
2022/02/20 11:19:04;;;;;;;1.33;0.40;;;;;;;12.68;58.18;98637.91;5145753;27;40984;-79
2022/02/20 11:21:39;;;;;;;0.30;0.30;;;;;;;12.87;56.56;98642.69;5131078;27;39154;-78
2022/02/20 11:24:08;;;;;;;0.50;0.40;;;;;;;12.72;57.05;98639.38;5150427;27;41963;-78
2022/02/20 11:26:38;;;;;;;0.50;0.50;;;;;;;12.94;57.01;98638.63;5153380;27;42905;-79
2022/02/20 11:29:06;;;;;;;0.30;0.30;;;;;;;13.37;55.82;98649.50;5153865;27;42636;-79
2022/02/20 11:31:34;;;;;;;0.40;0.40;;;;;;;13.51;55.21;98630.66;5136106;27;40951;-79
2022/02/20 11:34:04;;;;;;;0.40;0.40;;;;;;;13.53;54.56;98636.72;5138724;27;41756;-79
2022/02/20 11:36:32;;;;;;;0.50;0.50;;;;;;;14.00;54.14;98645.41;5123079;27;43020;-79
2022/02/20 11:39:13;;;;;;;1.07;0.53;;;;;;;14.22;52.69;98628.56;5115210;27;43404;-77
2022/02/20 11:42:07;;;;;;;0.97;0.30;;;;;;;14.14;52.40;98641.66;5136403;27;38698;-79
2022/02/20 11:44:46;;;;;;;0.43;0.43;;;;;;;13.74;53.82;98620.00;5131905;27;41618;-79
2022/02/20 11:47:38;;;;;;;0.57;0.33;;;;;;;13.58;53.56;98612.41;5133319;27;42036;-82
2022/02/20 11:50:37;;;;;;;0.40;0.40;;;;;;;13.34;54.38;98604.53;5132383;27;41106;-82
2022/02/20 11:53:07;;;;;;;0.40;0.40;;;;;;;13.27;55.05;98624.59;5145447;27;38494;-80
2022/02/20 11:55:39;;;;;;;0.60;0.50;;;;;;;13.10;54.78;98636.50;5150979;27;41806;-80
2022/02/20 11:58:25;;;;;;;0.53;0.43;;;;;;;12.93;55.61;98607.69;5137364;27;43509;-80
2022/02/20 12:01:08;;;;;;;0.70;0.50;;;;;;;12.62;56.52;98621.56;5135895;27;41395;-80
2022/02/20 12:04:07;;;;;;;0.60;0.60;;;;;;;12.65;56.71;98592.13;5136312;27;39280;-81
2022/02/20 12:06:37;;;;;;;1.53;0.50;;;;;;;12.49;57.18;98590.59;5124033;27;40644;-77
2022/02/20 12:09:24;;;;;;;0.40;0.40;;;;;;;12.50;56.54;98587.00;5128959;27;42018;-79
2022/02/20 12:11:53;;;;;;;1.70;0.70;;;;;;;12.42;57.03;98586.72;5134053;27;43229;-80
2022/02/20 12:14:25;;;;;;;0.60;0.60;;;;;;;12.46;57.37;98584.69;5132374;27;38808;-79
2022/02/20 12:16:55;;;;;;;0.40;0.40;;;;;;;12.61;57.01;98585.38;5130343;27;42740;-81
2022/02/20 12:19:26;;;;;;;1.07;0.50;;;;;;;12.57;56.76;98603.34;5130945;27;42030;-81
2022/02/20 12:21:59;;;;;;;0.57;0.57;;;;;;;12.42;57.26;98561.97;5136190;27;42564;-81
2022/02/20 12:24:29;;;;;;;2.00;0.50;;;;;;;12.66;56.80;98570.75;5150561;27;39928;-87
2022/02/20 12:26:59;;;;;;;0.40;0.40;;;;;;;13.27;55.87;98587.34;5132486;27;40491;-80
2022/02/20 12:29:36;;;;;;;1.03;0.50;;;;;;;13.39;55.48;98596.19;5141615;27;44154;-82
2022/02/20 12:32:13;;;;;;;1.53;0.60;;;;;;;13.26;55.34;98610.44;5136557;27;41952;-82
2022/02/20 12:34:53;;;;;;;0.80;0.40;;;;;;;13.21;55.43;98599.31;5139389;27;39990;-80
2022/02/20 12:37:23;;;;;;;0.50;0.50;;;;;;;13.03;55.86;98589.22;5131458;27;42498;-79
2022/02/20 12:40:00;;;;;;;3.60;0.90;;;;;;;12.91;55.99;98575.06;5128615;27;43774;-80
2022/02/20 12:42:31;;;;;;;1.00;0.77;;;;;;;12.98;56.19;98570.97;5128649;27;43354;-79
2022/02/20 12:45:07;;;;;;;0.83;0.77;;;;;;;13.17;55.49;98581.91;5127546;27;39929;-79
2022/02/20 12:47:39;;;;;;;0.40;0.40;;;;;;;12.99;55.72;98559.34;5124845;27;41860;-81
2022/02/20 12:50:09;;;;;;;2.70;0.50;;;;;;;13.02;55.95;98566.25;5127446;27;44034;-81
2022/02/20 12:52:38;;;;;;;0.50;0.40;;;;;;;13.08;55.56;98558.66;5128704;27;42645;-80
2022/02/20 12:55:07;;;;;;;0.40;0.40;;;;;;;12.72;56.22;98511.00;5111020;27;39222;-80